sensor_id;sensor_type;location;lat;lon;timestamp;temperature;humidity
13569;DHT22;6856;51.460;7.158;2023-04-24T00:02:36;14.60;56.40
13569;DHT22;6856;51.460;7.158;2023-04-24T00:05:13;14.60;56.40
13569;DHT22;6856;51.460;7.158;2023-04-24T00:07:47;14.60;56.50
13569;DHT22;6856;51.460;7.158;2023-04-24T00:10:24;14.60;56.40
13569;DHT22;6856;51.460;7.158;2023-04-24T00:12:58;14.60;56.20
13569;DHT22;6856;51.460;7.158;2023-04-24T00:15:31;14.60;56.50
13569;DHT22;6856;51.460;7.158;2023-04-24T00:18:07;14.60;56.30
13569;DHT22;6856;51.460;7.158;2023-04-24T00:20:41;14.60;56.40
13569;DHT22;6856;51.460;7.158;2023-04-24T00:23:15;14.50;56.20
13569;DHT22;6856;51.460;7.158;2023-04-24T00:25:49;14.60;56.20
13569;DHT22;6856;51.460;7.158;2023-04-24T00:28:23;14.50;56.10
13569;DHT22;6856;51.460;7.158;2023-04-24T00:30:57;14.50;56.20
13569;DHT22;6856;51.460;7.158;2023-04-24T00:33:32;14.50;56.10
13569;DHT22;6856;51.460;7.158;2023-04-24T00:36:06;14.40;56.10
13569;DHT22;6856;51.460;7.158;2023-04-24T00:38:51;14.40;56.20
13569;DHT22;6856;51.460;7.158;2023-04-24T00:41:25;14.40;56.10
13569;DHT22;6856;51.460;7.158;2023-04-24T00:43:58;14.40;56.10
13569;DHT22;6856;51.460;7.158;2023-04-24T00:46:32;14.30;56.10
13569;DHT22;6856;51.460;7.158;2023-04-24T00:49:14;14.30;56.20
13569;DHT22;6856;51.460;7.158;2023-04-24T00:51:49;14.30;56.30
13569;DHT22;6856;51.460;7.158;2023-04-24T00:54:23;14.20;56.20
13569;DHT22;6856;51.460;7.158;2023-04-24T00:56:57;14.20;56.20
13569;DHT22;6856;51.460;7.158;2023-04-24T00:59:33;14.20;56.20
13569;DHT22;6856;51.460;7.158;2023-04-24T01:02:09;14.10;56.30
13569;DHT22;6856;51.460;7.158;2023-04-24T01:04:45;14.10;56.30
13569;DHT22;6856;51.460;7.158;2023-04-24T01:07:19;14.10;56.30
13569;DHT22;6856;51.460;7.158;2023-04-24T01:09:57;14.00;56.30
13569;DHT22;6856;51.460;7.158;2023-04-24T01:12:32;14.00;55.90
13569;DHT22;6856;51.460;7.158;2023-04-24T01:15:07;14.00;56.20
13569;DHT22;6856;51.460;7.158;2023-04-24T01:17:42;13.90;56.30
13569;DHT22;6856;51.460;7.158;2023-04-24T01:20:17;13.90;56.20
13569;DHT22;6856;51.460;7.158;2023-04-24T01:22:58;14.10;56.40
13569;DHT22;6856;51.460;7.158;2023-04-24T01:25:33;13.80;56.30
13569;DHT22;6856;51.460;7.158;2023-04-24T01:28:07;13.80;56.40
13569;DHT22;6856;51.460;7.158;2023-04-24T01:30:41;13.80;56.40
13569;DHT22;6856;51.460;7.158;2023-04-24T01:33:16;13.70;56.50
13569;DHT22;6856;51.460;7.158;2023-04-24T01:35:51;13.70;56.50
13569;DHT22;6856;51.460;7.158;2023-04-24T01:38:27;13.30;56.40
13569;DHT22;6856;51.460;7.158;2023-04-24T01:41:01;13.70;56.60
13569;DHT22;6856;51.460;7.158;2023-04-24T01:43:35;13.70;56.70
13569;DHT22;6856;51.460;7.158;2023-04-24T01:46:19;13.70;56.60
13569;DHT22;6856;51.460;7.158;2023-04-24T01:48:53;13.60;56.70
13569;DHT22;6856;51.460;7.158;2023-04-24T01:51:28;13.60;57.20
13569;DHT22;6856;51.460;7.158;2023-04-24T01:54:04;13.60;56.50
13569;DHT22;6856;51.460;7.158;2023-04-24T01:56:41;13.60;56.80
13569;DHT22;6856;51.460;7.158;2023-04-24T01:59:17;13.50;56.70
13569;DHT22;6856;51.460;7.158;2023-04-24T02:01:51;13.50;56.90
13569;DHT22;6856;51.460;7.158;2023-04-24T02:04:28;13.50;56.90
13569;DHT22;6856;51.460;7.158;2023-04-24T02:07:04;13.50;56.80
13569;DHT22;6856;51.460;7.158;2023-04-24T02:09:41;13.40;56.80
13569;DHT22;6856;51.460;7.158;2023-04-24T02:12:15;13.40;56.80
13569;DHT22;6856;51.460;7.158;2023-04-24T02:14:50;13.40;56.90
13569;DHT22;6856;51.460;7.158;2023-04-24T02:17:25;13.30;56.90
13569;DHT22;6856;51.460;7.158;2023-04-24T02:19:59;13.30;56.90
13569;DHT22;6856;51.460;7.158;2023-04-24T02:22:34;13.20;57.50
13569;DHT22;6856;51.460;7.158;2023-04-24T02:25:09;13.20;56.90
13569;DHT22;6856;51.460;7.158;2023-04-24T02:27:43;13.10;57.00
13569;DHT22;6856;51.460;7.158;2023-04-24T02:30:18;13.10;57.00
13569;DHT22;6856;51.460;7.158;2023-04-24T02:32:52;13.00;57.10
13569;DHT22;6856;51.460;7.158;2023-04-24T02:35:26;13.00;57.20
13569;DHT22;6856;51.460;7.158;2023-04-24T02:38:00;12.90;57.20
13569;DHT22;6856;51.460;7.158;2023-04-24T02:40:36;12.90;57.80
13569;DHT22;6856;51.460;7.158;2023-04-24T02:43:12;12.90;57.50
13569;DHT22;6856;51.460;7.158;2023-04-24T02:45:46;12.80;57.50
13569;DHT22;6856;51.460;7.158;2023-04-24T02:48:21;12.80;57.70
13569;DHT22;6856;51.460;7.158;2023-04-24T02:50:55;12.70;57.80
13569;DHT22;6856;51.460;7.158;2023-04-24T02:53:29;12.70;57.80
13569;DHT22;6856;51.460;7.158;2023-04-24T02:56:05;12.70;57.90
13569;DHT22;6856;51.460;7.158;2023-04-24T02:58:39;12.70;58.00
13569;DHT22;6856;51.460;7.158;2023-04-24T03:01:14;12.70;58.10
13569;DHT22;6856;51.460;7.158;2023-04-24T03:03:48;12.70;58.30
13569;DHT22;6856;51.460;7.158;2023-04-24T03:06:25;12.60;58.30
13569;DHT22;6856;51.460;7.158;2023-04-24T03:09:01;12.70;58.20
13569;DHT22;6856;51.460;7.158;2023-04-24T03:11:36;12.60;58.40
13569;DHT22;6856;51.460;7.158;2023-04-24T03:14:10;12.60;58.40
13569;DHT22;6856;51.460;7.158;2023-04-24T03:16:47;12.60;59.10
13569;DHT22;6856;51.460;7.158;2023-04-24T03:19:22;12.60;58.60
13569;DHT22;6856;51.460;7.158;2023-04-24T03:21:55;12.70;58.70
13569;DHT22;6856;51.460;7.158;2023-04-24T03:24:29;12.60;58.70
13569;DHT22;6856;51.460;7.158;2023-04-24T03:27:05;12.60;58.70
13569;DHT22;6856;51.460;7.158;2023-04-24T03:29:41;12.70;58.80
13569;DHT22;6856;51.460;7.158;2023-04-24T03:32:18;12.70;58.80
13569;DHT22;6856;51.460;7.158;2023-04-24T03:34:55;12.70;58.90
13569;DHT22;6856;51.460;7.158;2023-04-24T03:37:28;12.70;58.80
13569;DHT22;6856;51.460;7.158;2023-04-24T03:40:05;12.70;58.80
13569;DHT22;6856;51.460;7.158;2023-04-24T03:42:42;12.70;59.00
13569;DHT22;6856;51.460;7.158;2023-04-24T03:45:17;12.70;58.90
13569;DHT22;6856;51.460;7.158;2023-04-24T03:47:50;12.70;58.80
13569;DHT22;6856;51.460;7.158;2023-04-24T03:50:24;12.70;58.80
13569;DHT22;6856;51.460;7.158;2023-04-24T03:52:58;12.70;58.80
13569;DHT22;6856;51.460;7.158;2023-04-24T03:55:32;12.70;58.80
13569;DHT22;6856;51.460;7.158;2023-04-24T03:58:08;12.70;58.80
13569;DHT22;6856;51.460;7.158;2023-04-24T04:00:44;12.70;58.90
13569;DHT22;6856;51.460;7.158;2023-04-24T04:03:23;12.70;58.90
13569;DHT22;6856;51.460;7.158;2023-04-24T04:05:58;12.70;59.00
13569;DHT22;6856;51.460;7.158;2023-04-24T04:08:32;12.70;58.80
13569;DHT22;6856;51.460;7.158;2023-04-24T04:11:06;12.70;58.90
13569;DHT22;6856;51.460;7.158;2023-04-24T04:13:41;12.70;58.90
13569;DHT22;6856;51.460;7.158;2023-04-24T04:16:15;12.70;59.00
13569;DHT22;6856;51.460;7.158;2023-04-24T04:18:49;12.70;59.00
13569;DHT22;6856;51.460;7.158;2023-04-24T04:21:23;12.70;59.00
13569;DHT22;6856;51.460;7.158;2023-04-24T04:23:58;12.70;59.00
13569;DHT22;6856;51.460;7.158;2023-04-24T04:26:38;12.70;59.00
13569;DHT22;6856;51.460;7.158;2023-04-24T04:29:15;12.70;59.10
13569;DHT22;6856;51.460;7.158;2023-04-24T04:31:51;12.70;59.10
13569;DHT22;6856;51.460;7.158;2023-04-24T04:34:26;12.60;58.90
13569;DHT22;6856;51.460;7.158;2023-04-24T04:37:01;12.70;59.00
13569;DHT22;6856;51.460;7.158;2023-04-24T04:39:36;12.70;59.00
13569;DHT22;6856;51.460;7.158;2023-04-24T04:42:09;12.70;59.00
13569;DHT22;6856;51.460;7.158;2023-04-24T04:44:45;12.70;59.00
13569;DHT22;6856;51.460;7.158;2023-04-24T04:47:20;12.80;59.00
13569;DHT22;6856;51.460;7.158;2023-04-24T04:49:56;12.70;59.00
13569;DHT22;6856;51.460;7.158;2023-04-24T04:52:30;12.70;58.90
13569;DHT22;6856;51.460;7.158;2023-04-24T04:55:09;12.70;58.90
13569;DHT22;6856;51.460;7.158;2023-04-24T04:57:43;12.70;58.90
13569;DHT22;6856;51.460;7.158;2023-04-24T05:00:19;12.70;58.80
13569;DHT22;6856;51.460;7.158;2023-04-24T05:02:53;12.70;58.80
13569;DHT22;6856;51.460;7.158;2023-04-24T05:05:40;12.70;58.80
13569;DHT22;6856;51.460;7.158;2023-04-24T05:08:18;12.70;58.90
13569;DHT22;6856;51.460;7.158;2023-04-24T05:10:58;12.70;58.80
13569;DHT22;6856;51.460;7.158;2023-04-24T05:13:32;12.70;58.80
13569;DHT22;6856;51.460;7.158;2023-04-24T05:16:13;12.70;58.80
13569;DHT22;6856;51.460;7.158;2023-04-24T05:18:46;12.70;58.70
13569;DHT22;6856;51.460;7.158;2023-04-24T05:21:20;12.70;58.80
13569;DHT22;6856;51.460;7.158;2023-04-24T05:23:54;12.70;58.80
13569;DHT22;6856;51.460;7.158;2023-04-24T05:26:34;12.70;58.80
13569;DHT22;6856;51.460;7.158;2023-04-24T05:29:10;12.70;58.80
13569;DHT22;6856;51.460;7.158;2023-04-24T05:31:45;12.70;58.80
13569;DHT22;6856;51.460;7.158;2023-04-24T05:34:25;12.70;58.80
13569;DHT22;6856;51.460;7.158;2023-04-24T05:36:59;12.70;58.80
13569;DHT22;6856;51.460;7.158;2023-04-24T05:39:33;12.70;58.80
13569;DHT22;6856;51.460;7.158;2023-04-24T05:42:07;12.70;59.00
13569;DHT22;6856;51.460;7.158;2023-04-24T05:44:41;12.60;59.10
13569;DHT22;6856;51.460;7.158;2023-04-24T05:47:17;12.60;59.20
13569;DHT22;6856;51.460;7.158;2023-04-24T05:49:50;12.60;59.50
13569;DHT22;6856;51.460;7.158;2023-04-24T05:52:32;12.60;59.50
13569;DHT22;6856;51.460;7.158;2023-04-24T05:55:06;12.50;59.70
13569;DHT22;6856;51.460;7.158;2023-04-24T05:57:40;12.50;59.80
13569;DHT22;6856;51.460;7.158;2023-04-24T06:00:16;12.40;59.90
13569;DHT22;6856;51.460;7.158;2023-04-24T06:02:53;12.40;60.10
13569;DHT22;6856;51.460;7.158;2023-04-24T06:05:27;12.00;60.00
13569;DHT22;6856;51.460;7.158;2023-04-24T06:08:02;12.30;60.30
13569;DHT22;6856;51.460;7.158;2023-04-24T06:10:36;12.30;60.40
13569;DHT22;6856;51.460;7.158;2023-04-24T06:13:11;12.30;61.20
13569;DHT22;6856;51.460;7.158;2023-04-24T06:15:45;12.30;60.40
13569;DHT22;6856;51.460;7.158;2023-04-24T06:18:30;12.30;60.60
13569;DHT22;6856;51.460;7.158;2023-04-24T06:21:05;12.30;60.60
13569;DHT22;6856;51.460;7.158;2023-04-24T06:23:38;12.20;60.50
13569;DHT22;6856;51.460;7.158;2023-04-24T06:26:13;12.20;60.50
13569;DHT22;6856;51.460;7.158;2023-04-24T06:28:47;12.20;60.60
13569;DHT22;6856;51.460;7.158;2023-04-24T06:31:28;12.20;60.70
13569;DHT22;6856;51.460;7.158;2023-04-24T06:34:03;12.20;60.90
13569;DHT22;6856;51.460;7.158;2023-04-24T06:36:38;12.20;60.90
13569;DHT22;6856;51.460;7.158;2023-04-24T06:39:12;12.20;61.00
13569;DHT22;6856;51.460;7.158;2023-04-24T06:41:46;12.20;61.20
13569;DHT22;6856;51.460;7.158;2023-04-24T06:44:20;12.20;61.10
13569;DHT22;6856;51.460;7.158;2023-04-24T06:46:54;12.20;61.00
13569;DHT22;6856;51.460;7.158;2023-04-24T06:49:29;12.20;61.10
13569;DHT22;6856;51.460;7.158;2023-04-24T06:52:03;12.20;61.40
13569;DHT22;6856;51.460;7.158;2023-04-24T06:54:41;12.20;61.50
13569;DHT22;6856;51.460;7.158;2023-04-24T06:57:17;12.20;61.80
13569;DHT22;6856;51.460;7.158;2023-04-24T06:59:51;12.20;61.90
13569;DHT22;6856;51.460;7.158;2023-04-24T07:02:25;12.20;61.70
13569;DHT22;6856;51.460;7.158;2023-04-24T07:05:00;12.20;61.90
13569;DHT22;6856;51.460;7.158;2023-04-24T07:07:34;12.20;62.10
13569;DHT22;6856;51.460;7.158;2023-04-24T07:10:09;12.20;62.10
13569;DHT22;6856;51.460;7.158;2023-04-24T07:12:43;12.20;62.30
13569;DHT22;6856;51.460;7.158;2023-04-24T07:15:17;12.20;62.40
13569;DHT22;6856;51.460;7.158;2023-04-24T07:17:51;12.20;62.20
13569;DHT22;6856;51.460;7.158;2023-04-24T07:20:27;12.20;62.10
13569;DHT22;6856;51.460;7.158;2023-04-24T07:23:00;12.20;62.10
13569;DHT22;6856;51.460;7.158;2023-04-24T07:25:35;12.20;62.10
13569;DHT22;6856;51.460;7.158;2023-04-24T07:28:10;12.20;62.30
13569;DHT22;6856;51.460;7.158;2023-04-24T07:30:47;12.20;62.30
13569;DHT22;6856;51.460;7.158;2023-04-24T07:33:20;12.20;62.20
13569;DHT22;6856;51.460;7.158;2023-04-24T07:35:56;12.20;62.20
13569;DHT22;6856;51.460;7.158;2023-04-24T07:38:30;12.20;62.30
13569;DHT22;6856;51.460;7.158;2023-04-24T07:41:05;12.20;62.20
13569;DHT22;6856;51.460;7.158;2023-04-24T07:43:41;12.20;62.10
13569;DHT22;6856;51.460;7.158;2023-04-24T07:46:18;12.20;62.20
13569;DHT22;6856;51.460;7.158;2023-04-24T07:48:52;12.20;62.20
13569;DHT22;6856;51.460;7.158;2023-04-24T07:51:44;12.20;62.20
13569;DHT22;6856;51.460;7.158;2023-04-24T07:54:19;12.20;62.20
13569;DHT22;6856;51.460;7.158;2023-04-24T07:56:52;12.20;62.10
13569;DHT22;6856;51.460;7.158;2023-04-24T07:59:26;12.30;62.20
13569;DHT22;6856;51.460;7.158;2023-04-24T08:02:00;12.30;62.10
13569;DHT22;6856;51.460;7.158;2023-04-24T08:04:34;12.30;62.10
13569;DHT22;6856;51.460;7.158;2023-04-24T08:07:10;12.30;61.80
13569;DHT22;6856;51.460;7.158;2023-04-24T08:09:45;12.30;61.70
13569;DHT22;6856;51.460;7.158;2023-04-24T08:12:19;12.20;61.40
13569;DHT22;6856;51.460;7.158;2023-04-24T08:14:53;12.20;61.20
13569;DHT22;6856;51.460;7.158;2023-04-24T08:17:27;12.20;61.10
13569;DHT22;6856;51.460;7.158;2023-04-24T08:20:04;12.20;61.20
13569;DHT22;6856;51.460;7.158;2023-04-24T08:22:43;12.20;61.40
13569;DHT22;6856;51.460;7.158;2023-04-24T08:25:19;12.40;61.60
13569;DHT22;6856;51.460;7.158;2023-04-24T08:27:55;12.10;61.50
13569;DHT22;6856;51.460;7.158;2023-04-24T08:30:29;12.10;61.40
13569;DHT22;6856;51.460;7.158;2023-04-24T08:33:05;12.10;61.40
13569;DHT22;6856;51.460;7.158;2023-04-24T08:35:40;12.00;61.40
13569;DHT22;6856;51.460;7.158;2023-04-24T08:38:15;12.00;61.60
13569;DHT22;6856;51.460;7.158;2023-04-24T08:40:49;12.00;61.70
13569;DHT22;6856;51.460;7.158;2023-04-24T08:43:25;11.90;61.80
13569;DHT22;6856;51.460;7.158;2023-04-24T08:46:00;11.90;62.20
13569;DHT22;6856;51.460;7.158;2023-04-24T08:48:43;12.10;62.20
13569;DHT22;6856;51.460;7.158;2023-04-24T08:51:18;11.90;62.20
13569;DHT22;6856;51.460;7.158;2023-04-24T08:53:55;11.80;62.30
13569;DHT22;6856;51.460;7.158;2023-04-24T08:56:37;11.90;62.50
13569;DHT22;6856;51.460;7.158;2023-04-24T08:59:14;11.70;62.60
13569;DHT22;6856;51.460;7.158;2023-04-24T09:01:49;11.70;62.80
13569;DHT22;6856;51.460;7.158;2023-04-24T09:04:29;11.60;63.00
13569;DHT22;6856;51.460;7.158;2023-04-24T09:07:06;11.60;63.20
13569;DHT22;6856;51.460;7.158;2023-04-24T09:09:42;11.60;63.50
13569;DHT22;6856;51.460;7.158;2023-04-24T09:12:19;11.60;63.70
13569;DHT22;6856;51.460;7.158;2023-04-24T09:14:55;11.60;63.90
13569;DHT22;6856;51.460;7.158;2023-04-24T09:17:35;11.60;64.10
13569;DHT22;6856;51.460;7.158;2023-04-24T09:20:23;11.60;64.10
13569;DHT22;6856;51.460;7.158;2023-04-24T09:22:57;11.70;64.50
13569;DHT22;6856;51.460;7.158;2023-04-24T09:25:34;11.70;64.70
13569;DHT22;6856;51.460;7.158;2023-04-24T09:28:08;11.70;64.90
13569;DHT22;6856;51.460;7.158;2023-04-24T09:30:42;11.90;65.00
13569;DHT22;6856;51.460;7.158;2023-04-24T09:33:16;11.80;65.10
13569;DHT22;6856;51.460;7.158;2023-04-24T09:35:52;11.80;65.20
13569;DHT22;6856;51.460;7.158;2023-04-24T09:38:34;11.90;65.20
13569;DHT22;6856;51.460;7.158;2023-04-24T09:41:13;11.90;65.30
13569;DHT22;6856;51.460;7.158;2023-04-24T09:43:47;11.90;65.80
13569;DHT22;6856;51.460;7.158;2023-04-24T09:46:28;11.90;64.90
13569;DHT22;6856;51.460;7.158;2023-04-24T09:49:08;11.90;64.80
13569;DHT22;6856;51.460;7.158;2023-04-24T09:51:43;11.90;64.80
13569;DHT22;6856;51.460;7.158;2023-04-24T09:54:18;11.90;64.90
13569;DHT22;6856;51.460;7.158;2023-04-24T09:56:56;11.90;64.90
13569;DHT22;6856;51.460;7.158;2023-04-24T09:59:32;11.90;64.70
13569;DHT22;6856;51.460;7.158;2023-04-24T10:02:17;11.80;64.50
13569;DHT22;6856;51.460;7.158;2023-04-24T10:04:56;11.80;64.70
13569;DHT22;6856;51.460;7.158;2023-04-24T10:07:33;11.80;64.60
13569;DHT22;6856;51.460;7.158;2023-04-24T10:10:07;11.80;64.30
13569;DHT22;6856;51.460;7.158;2023-04-24T10:12:53;11.70;64.40
13569;DHT22;6856;51.460;7.158;2023-04-24T10:15:28;11.70;64.40
13569;DHT22;6856;51.460;7.158;2023-04-24T10:18:02;11.70;64.40
13569;DHT22;6856;51.460;7.158;2023-04-24T10:20:39;11.70;64.50
13569;DHT22;6856;51.460;7.158;2023-04-24T10:23:13;11.70;64.70
13569;DHT22;6856;51.460;7.158;2023-04-24T10:25:49;11.60;64.60
13569;DHT22;6856;51.460;7.158;2023-04-24T10:28:27;11.60;64.50
13569;DHT22;6856;51.460;7.158;2023-04-24T10:31:03;11.60;64.70
13569;DHT22;6856;51.460;7.158;2023-04-24T10:33:38;11.60;64.80
13569;DHT22;6856;51.460;7.158;2023-04-24T10:36:14;11.60;65.10
13569;DHT22;6856;51.460;7.158;2023-04-24T10:38:50;11.60;65.20
13569;DHT22;6856;51.460;7.158;2023-04-24T10:41:26;11.90;65.50
13569;DHT22;6856;51.460;7.158;2023-04-24T10:44:08;11.50;65.40
13569;DHT22;6856;51.460;7.158;2023-04-24T10:46:46;11.70;65.60
13569;DHT22;6856;51.460;7.158;2023-04-24T10:49:30;11.70;65.50
13569;DHT22;6856;51.460;7.158;2023-04-24T10:52:05;11.70;66.00
13569;DHT22;6856;51.460;7.158;2023-04-24T10:54:42;11.70;65.10
13569;DHT22;6856;51.460;7.158;2023-04-24T10:57:28;12.00;65.30
13569;DHT22;6856;51.460;7.158;2023-04-24T11:00:19;11.70;65.20
13569;DHT22;6856;51.460;7.158;2023-04-24T11:02:54;11.60;65.30
13569;DHT22;6856;51.460;7.158;2023-04-24T11:05:49;11.70;65.10
13569;DHT22;6856;51.460;7.158;2023-04-24T11:08:29;11.70;65.60
13569;DHT22;6856;51.460;7.158;2023-04-24T11:11:11;11.80;65.60
13569;DHT22;6856;51.460;7.158;2023-04-24T11:14:06;11.80;65.80
13569;DHT22;6856;51.460;7.158;2023-04-24T11:16:50;11.80;66.00
13569;DHT22;6856;51.460;7.158;2023-04-24T11:19:26;11.80;65.80
13569;DHT22;6856;51.460;7.158;2023-04-24T11:22:03;11.80;65.80
13569;DHT22;6856;51.460;7.158;2023-04-24T11:24:39;11.90;65.90
13569;DHT22;6856;51.460;7.158;2023-04-24T11:27:23;11.90;65.90
13569;DHT22;6856;51.460;7.158;2023-04-24T11:30:00;11.90;65.80
13569;DHT22;6856;51.460;7.158;2023-04-24T11:32:38;11.90;65.70
13569;DHT22;6856;51.460;7.158;2023-04-24T11:35:14;11.90;65.60
13569;DHT22;6856;51.460;7.158;2023-04-24T11:37:51;12.00;65.80
13569;DHT22;6856;51.460;7.158;2023-04-24T11:40:47;12.00;66.20
13569;DHT22;6856;51.460;7.158;2023-04-24T11:43:21;12.10;66.30
13569;DHT22;6856;51.460;7.158;2023-04-24T11:45:59;12.20;66.50
13569;DHT22;6856;51.460;7.158;2023-04-24T11:48:36;12.20;66.20
13569;DHT22;6856;51.460;7.158;2023-04-24T11:51:12;12.30;66.10
13569;DHT22;6856;51.460;7.158;2023-04-24T11:53:46;12.30;65.70
13569;DHT22;6856;51.460;7.158;2023-04-24T11:56:28;12.30;65.30
13569;DHT22;6856;51.460;7.158;2023-04-24T11:59:04;12.40;64.70
13569;DHT22;6856;51.460;7.158;2023-04-24T12:01:43;12.30;64.30
13569;DHT22;6856;51.460;7.158;2023-04-24T12:04:19;12.00;64.10
13569;DHT22;6856;51.460;7.158;2023-04-24T12:06:59;12.30;64.00
13569;DHT22;6856;51.460;7.158;2023-04-24T12:09:43;12.30;63.80
13569;DHT22;6856;51.460;7.158;2023-04-24T12:12:19;12.30;63.70
13569;DHT22;6856;51.460;7.158;2023-04-24T12:14:53;12.20;63.50
13569;DHT22;6856;51.460;7.158;2023-04-24T12:17:30;12.20;63.90
13569;DHT22;6856;51.460;7.158;2023-04-24T12:20:14;12.30;64.30
13569;DHT22;6856;51.460;7.158;2023-04-24T12:22:52;12.30;64.50
13569;DHT22;6856;51.460;7.158;2023-04-24T12:25:29;12.50;64.50
13569;DHT22;6856;51.460;7.158;2023-04-24T12:28:11;12.40;64.30
13569;DHT22;6856;51.460;7.158;2023-04-24T12:30:47;12.50;64.10
13569;DHT22;6856;51.460;7.158;2023-04-24T12:33:23;12.50;64.10
13569;DHT22;6856;51.460;7.158;2023-04-24T12:35:59;12.60;64.00
13569;DHT22;6856;51.460;7.158;2023-04-24T12:38:33;12.60;63.70
13569;DHT22;6856;51.460;7.158;2023-04-24T12:41:13;12.70;63.20
13569;DHT22;6856;51.460;7.158;2023-04-24T12:43:52;12.70;63.00
13569;DHT22;6856;51.460;7.158;2023-04-24T12:46:27;12.70;62.80
13569;DHT22;6856;51.460;7.158;2023-04-24T12:49:01;12.70;62.40
13569;DHT22;6856;51.460;7.158;2023-04-24T12:51:36;12.70;62.30
13569;DHT22;6856;51.460;7.158;2023-04-24T12:54:10;12.70;61.90
13569;DHT22;6856;51.460;7.158;2023-04-24T12:56:44;12.70;61.80
13569;DHT22;6856;51.460;7.158;2023-04-24T12:59:18;12.70;61.50
13569;DHT22;6856;51.460;7.158;2023-04-24T13:01:52;12.70;61.00
13569;DHT22;6856;51.460;7.158;2023-04-24T13:04:26;12.70;60.90
13569;DHT22;6856;51.460;7.158;2023-04-24T13:07:01;12.70;61.00
13569;DHT22;6856;51.460;7.158;2023-04-24T13:09:35;12.70;61.00
13569;DHT22;6856;51.460;7.158;2023-04-24T13:12:09;12.70;61.00
13569;DHT22;6856;51.460;7.158;2023-04-24T13:14:43;12.70;60.90
13569;DHT22;6856;51.460;7.158;2023-04-24T13:17:17;12.90;61.00
13569;DHT22;6856;51.460;7.158;2023-04-24T13:19:54;12.80;61.20
13569;DHT22;6856;51.460;7.158;2023-04-24T13:22:31;12.90;61.30
13569;DHT22;6856;51.460;7.158;2023-04-24T13:25:06;12.90;61.00
13569;DHT22;6856;51.460;7.158;2023-04-24T13:27:41;13.00;60.90
13569;DHT22;6856;51.460;7.158;2023-04-24T13:30:15;13.10;60.30
13569;DHT22;6856;51.460;7.158;2023-04-24T13:32:48;13.10;59.90
13569;DHT22;6856;51.460;7.158;2023-04-24T13:35:26;13.10;59.60
13569;DHT22;6856;51.460;7.158;2023-04-24T13:38:01;13.20;59.70
13569;DHT22;6856;51.460;7.158;2023-04-24T13:40:37;13.20;59.60
13569;DHT22;6856;51.460;7.158;2023-04-24T13:43:11;13.20;59.20
13569;DHT22;6856;51.460;7.158;2023-04-24T13:45:45;13.20;58.90
13569;DHT22;6856;51.460;7.158;2023-04-24T13:48:20;13.20;58.70
13569;DHT22;6856;51.460;7.158;2023-04-24T13:50:53;13.30;58.60
13569;DHT22;6856;51.460;7.158;2023-04-24T13:53:29;13.30;58.70
13569;DHT22;6856;51.460;7.158;2023-04-24T13:56:03;13.30;58.60
13569;DHT22;6856;51.460;7.158;2023-04-24T13:58:38;13.30;58.60
13569;DHT22;6856;51.460;7.158;2023-04-24T14:01:12;13.20;58.40
13569;DHT22;6856;51.460;7.158;2023-04-24T14:03:47;13.20;58.30
13569;DHT22;6856;51.460;7.158;2023-04-24T14:06:22;13.20;58.20
13569;DHT22;6856;51.460;7.158;2023-04-24T14:08:58;13.30;58.40
13569;DHT22;6856;51.460;7.158;2023-04-24T14:11:33;13.30;58.60
13569;DHT22;6856;51.460;7.158;2023-04-24T14:14:07;13.30;58.60
13569;DHT22;6856;51.460;7.158;2023-04-24T14:16:41;13.30;58.40
13569;DHT22;6856;51.460;7.158;2023-04-24T14:19:15;13.40;57.80
13569;DHT22;6856;51.460;7.158;2023-04-24T14:21:49;13.40;58.20
13569;DHT22;6856;51.460;7.158;2023-04-24T14:24:24;13.50;58.20
13569;DHT22;6856;51.460;7.158;2023-04-24T14:26:58;13.50;58.00
13569;DHT22;6856;51.460;7.158;2023-04-24T14:29:33;13.50;58.10
13569;DHT22;6856;51.460;7.158;2023-04-24T14:32:07;13.60;58.20
13569;DHT22;6856;51.460;7.158;2023-04-24T14:34:41;13.60;58.10
13569;DHT22;6856;51.460;7.158;2023-04-24T14:37:14;13.60;57.80
13569;DHT22;6856;51.460;7.158;2023-04-24T14:39:50;13.60;57.60
13569;DHT22;6856;51.460;7.158;2023-04-24T14:42:44;13.60;57.30
13569;DHT22;6856;51.460;7.158;2023-04-24T14:45:18;13.70;57.40
13569;DHT22;6856;51.460;7.158;2023-04-24T14:47:52;13.60;57.40
13569;DHT22;6856;51.460;7.158;2023-04-24T14:50:27;13.60;57.10
13569;DHT22;6856;51.460;7.158;2023-04-24T14:53:00;13.60;57.00
13569;DHT22;6856;51.460;7.158;2023-04-24T14:55:36;13.60;57.00
13569;DHT22;6856;51.460;7.158;2023-04-24T14:58:10;13.60;56.90
13569;DHT22;6856;51.460;7.158;2023-04-24T15:00:44;13.60;56.90
13569;DHT22;6856;51.460;7.158;2023-04-24T15:03:18;13.60;56.90
13569;DHT22;6856;51.460;7.158;2023-04-24T15:05:53;13.50;57.50
13569;DHT22;6856;51.460;7.158;2023-04-24T15:08:28;13.50;57.20
13569;DHT22;6856;51.460;7.158;2023-04-24T15:11:03;13.50;57.20
13569;DHT22;6856;51.460;7.158;2023-04-24T15:13:37;13.40;57.30
13569;DHT22;6856;51.460;7.158;2023-04-24T15:16:13;13.40;57.30
13569;DHT22;6856;51.460;7.158;2023-04-24T15:18:47;13.30;57.60
13569;DHT22;6856;51.460;7.158;2023-04-24T15:21:24;13.30;57.90
13569;DHT22;6856;51.460;7.158;2023-04-24T15:23:58;13.30;58.20
13569;DHT22;6856;51.460;7.158;2023-04-24T15:26:33;13.10;58.40
13569;DHT22;6856;51.460;7.158;2023-04-24T15:29:06;13.10;59.30
13569;DHT22;6856;51.460;7.158;2023-04-24T15:31:40;13.10;59.00
13569;DHT22;6856;51.460;7.158;2023-04-24T15:34:14;13.10;59.20
13569;DHT22;6856;51.460;7.158;2023-04-24T15:36:48;13.10;59.40
13569;DHT22;6856;51.460;7.158;2023-04-24T15:39:22;13.10;59.60
13569;DHT22;6856;51.460;7.158;2023-04-24T15:42:00;13.20;60.00
13569;DHT22;6856;51.460;7.158;2023-04-24T15:44:34;13.20;60.10
13569;DHT22;6856;51.460;7.158;2023-04-24T15:47:11;13.30;60.00
13569;DHT22;6856;51.460;7.158;2023-04-24T15:49:46;13.40;59.40
13569;DHT22;6856;51.460;7.158;2023-04-24T15:52:19;13.50;59.00
13569;DHT22;6856;51.460;7.158;2023-04-24T15:54:53;13.50;58.90
13569;DHT22;6856;51.460;7.158;2023-04-24T15:57:31;13.60;58.90
13569;DHT22;6856;51.460;7.158;2023-04-24T16:00:06;13.60;58.60
13569;DHT22;6856;51.460;7.158;2023-04-24T16:02:41;13.70;58.60
13569;DHT22;6856;51.460;7.158;2023-04-24T16:05:15;13.70;58.20
13569;DHT22;6856;51.460;7.158;2023-04-24T16:07:51;13.70;57.90
13569;DHT22;6856;51.460;7.158;2023-04-24T16:10:26;13.80;57.80
13569;DHT22;6856;51.460;7.158;2023-04-24T16:13:01;13.80;57.80
13569;DHT22;6856;51.460;7.158;2023-04-24T16:15:36;13.80;57.40
13569;DHT22;6856;51.460;7.158;2023-04-24T16:18:10;13.80;57.40
13569;DHT22;6856;51.460;7.158;2023-04-24T16:20:43;13.90;58.00
13569;DHT22;6856;51.460;7.158;2023-04-24T16:23:17;13.90;57.50
13569;DHT22;6856;51.460;7.158;2023-04-24T16:25:52;13.90;57.30
13569;DHT22;6856;51.460;7.158;2023-04-24T16:28:28;13.90;57.30
13569;DHT22;6856;51.460;7.158;2023-04-24T16:31:02;14.00;57.20
13569;DHT22;6856;51.460;7.158;2023-04-24T16:33:36;14.00;57.30
13569;DHT22;6856;51.460;7.158;2023-04-24T16:36:11;14.00;57.00
13569;DHT22;6856;51.460;7.158;2023-04-24T16:38:46;14.10;56.60
13569;DHT22;6856;51.460;7.158;2023-04-24T16:41:24;14.10;56.60